sensor_id;sensor_type;location;lat;lon;timestamp;pressure;altitude;pressure_sealevel;temperature;humidity
692;BME280;70475;50.084;8.576;2023-07-28T00:01:51;99850.63;;;17.55;100.00
692;BME280;70475;50.084;8.576;2023-07-28T00:04:19;99853.06;;;17.57;100.00
692;BME280;70475;50.084;8.576;2023-07-28T00:06:48;99848.25;;;17.59;100.00
692;BME280;70475;50.084;8.576;2023-07-28T00:09:16;99846.06;;;17.56;100.00
692;BME280;70475;50.084;8.576;2023-07-28T00:11:43;99852.75;;;17.53;100.00
692;BME280;70475;50.084;8.576;2023-07-28T00:14:11;99859.53;;;17.56;100.00
692;BME280;70475;50.084;8.576;2023-07-28T00:16:38;99850.00;;;17.48;100.00
692;BME280;70475;50.084;8.576;2023-07-28T00:19:06;99852.75;;;17.53;100.00
692;BME280;70475;50.084;8.576;2023-07-28T00:21:33;99850.81;;;17.49;100.00
692;BME280;70475;50.084;8.576;2023-07-28T00:24:02;99853.66;;;17.59;100.00
692;BME280;70475;50.084;8.576;2023-07-28T00:26:30;99862.22;;;17.56;100.00
692;BME280;70475;50.084;8.576;2023-07-28T00:28:58;99860.03;;;17.53;100.00
692;BME280;70475;50.084;8.576;2023-07-28T00:31:26;99851.38;;;17.51;100.00
692;BME280;70475;50.084;8.576;2023-07-28T00:33:53;99853.41;;;17.60;100.00
692;BME280;70475;50.084;8.576;2023-07-28T00:36:21;99849.81;;;17.55;100.00
692;BME280;70475;50.084;8.576;2023-07-28T00:38:48;99841.00;;;17.59;100.00
692;BME280;70475;50.084;8.576;2023-07-28T00:41:17;99845.31;;;17.60;100.00
692;BME280;70475;50.084;8.576;2023-07-28T00:43:45;99847.84;;;17.67;100.00
692;BME280;70475;50.084;8.576;2023-07-28T00:46:12;99844.56;;;17.65;100.00
692;BME280;70475;50.084;8.576;2023-07-28T00:48:41;99836.91;;;17.57;100.00
692;BME280;70475;50.084;8.576;2023-07-28T00:51:09;99843.94;;;17.58;100.00
692;BME280;70475;50.084;8.576;2023-07-28T00:53:37;99826.72;;;17.59;100.00
692;BME280;70475;50.084;8.576;2023-07-28T00:56:05;99839.19;;;17.65;100.00
692;BME280;70475;50.084;8.576;2023-07-28T00:58:34;99836.41;;;17.60;100.00
692;BME280;70475;50.084;8.576;2023-07-28T01:01:02;99833.19;;;17.58;100.00
692;BME280;70475;50.084;8.576;2023-07-28T01:03:30;99831.53;;;17.57;100.00
692;BME280;70475;50.084;8.576;2023-07-28T01:06:10;99828.28;;;17.55;100.00
692;BME280;70475;50.084;8.576;2023-07-28T01:08:42;99831.28;;;17.58;100.00
692;BME280;70475;50.084;8.576;2023-07-28T01:11:11;99833.19;;;17.58;100.00
692;BME280;70475;50.084;8.576;2023-07-28T01:13:40;99827.84;;;17.63;100.00
692;BME280;70475;50.084;8.576;2023-07-28T01:16:08;99831.59;;;17.62;100.00
692;BME280;70475;50.084;8.576;2023-07-28T01:18:36;99829.41;;;17.59;100.00
692;BME280;70475;50.084;8.576;2023-07-28T01:21:06;99833.22;;;17.63;100.00
692;BME280;70475;50.084;8.576;2023-07-28T01:23:41;99826.31;;;17.67;100.00
692;BME280;70475;50.084;8.576;2023-07-28T01:26:13;99820.59;;;17.63;100.00
692;BME280;70475;50.084;8.576;2023-07-28T01:28:44;99823.19;;;17.58;100.00
692;BME280;70475;50.084;8.576;2023-07-28T01:31:12;99818.97;;;17.62;100.00
692;BME280;70475;50.084;8.576;2023-07-28T01:33:40;99818.47;;;17.65;100.00
692;BME280;70475;50.084;8.576;2023-07-28T01:36:07;99810.56;;;17.59;100.00
692;BME280;70475;50.084;8.576;2023-07-28T01:38:35;99812.94;;;17.55;100.00
692;BME280;70475;50.084;8.576;2023-07-28T01:41:02;99821.25;;;17.54;100.00
692;BME280;70475;50.084;8.576;2023-07-28T01:43:30;99819.47;;;17.59;100.00
692;BME280;70475;50.084;8.576;2023-07-28T01:45:59;99821.34;;;17.59;100.00
692;BME280;70475;50.084;8.576;2023-07-28T01:48:26;99821.81;;;17.56;100.00
692;BME280;70475;50.084;8.576;2023-07-28T01:50:54;99820.47;;;17.53;100.00
692;BME280;70475;50.084;8.576;2023-07-28T01:53:22;99825.41;;;17.61;100.00
692;BME280;70475;50.084;8.576;2023-07-28T01:55:49;99819.75;;;17.63;100.00
692;BME280;70475;50.084;8.576;2023-07-28T01:58:17;99821.41;;;17.64;100.00
692;BME280;70475;50.084;8.576;2023-07-28T02:00:44;99823.53;;;17.62;100.00
692;BME280;70475;50.084;8.576;2023-07-28T02:03:14;99827.28;;;17.61;100.00
692;BME280;70475;50.084;8.576;2023-07-28T02:05:41;99824.34;;;17.62;100.00
692;BME280;70475;50.084;8.576;2023-07-28T02:08:10;99828.41;;;17.65;100.00
692;BME280;70475;50.084;8.576;2023-07-28T02:10:38;99832.97;;;17.64;100.00
692;BME280;70475;50.084;8.576;2023-07-28T02:13:05;99832.69;;;17.61;100.00
692;BME280;70475;50.084;8.576;2023-07-28T02:15:33;99830.00;;;17.61;100.00
692;BME280;70475;50.084;8.576;2023-07-28T02:18:00;99832.81;;;17.71;100.00
692;BME280;70475;50.084;8.576;2023-07-28T02:20:29;99831.69;;;17.67;100.00
692;BME280;70475;50.084;8.576;2023-07-28T02:22:57;99832.19;;;17.64;100.00
692;BME280;70475;50.084;8.576;2023-07-28T02:25:25;99832.19;;;17.64;100.00
692;BME280;70475;50.084;8.576;2023-07-28T02:27:52;99836.75;;;17.63;100.00
692;BME280;70475;50.084;8.576;2023-07-28T02:30:20;99831.03;;;17.60;100.00
692;BME280;70475;50.084;8.576;2023-07-28T02:32:47;99834.91;;;17.69;100.00
692;BME280;70475;50.084;8.576;2023-07-28T02:35:15;99833.59;;;17.71;100.00
692;BME280;70475;50.084;8.576;2023-07-28T02:37:47;99831.34;;;17.63;100.00
692;BME280;70475;50.084;8.576;2023-07-28T02:40:15;99821.09;;;17.60;100.00
692;BME280;70475;50.084;8.576;2023-07-28T02:42:43;99819.47;;;17.59;100.00
692;BME280;70475;50.084;8.576;2023-07-28T02:45:10;99821.41;;;17.64;100.00
692;BME280;70475;50.084;8.576;2023-07-28T02:47:38;99827.28;;;17.61;100.00
692;BME280;70475;50.084;8.576;2023-07-28T02:50:06;99828.03;;;17.56;100.00
692;BME280;70475;50.084;8.576;2023-07-28T02:52:34;99827.13;;;17.51;100.00
692;BME280;70475;50.084;8.576;2023-07-28T02:55:03;99819.78;;;17.46;100.00
692;BME280;70475;50.084;8.576;2023-07-28T02:57:31;99829.19;;;17.44;100.00
692;BME280;70475;50.084;8.576;2023-07-28T02:59:58;99832.72;;;17.44;100.00
692;BME280;70475;50.084;8.576;2023-07-28T03:02:26;99830.06;;;17.49;100.00
692;BME280;70475;50.084;8.576;2023-07-28T03:04:54;99834.66;;;17.49;100.00
692;BME280;70475;50.084;8.576;2023-07-28T03:07:21;99836.28;;;17.50;100.00
692;BME280;70475;50.084;8.576;2023-07-28T03:09:49;99839.69;;;17.62;100.00
692;BME280;70475;50.084;8.576;2023-07-28T03:12:17;99827.53;;;17.59;100.00
692;BME280;70475;50.084;8.576;2023-07-28T03:14:45;99835.13;;;17.62;100.00
692;BME280;70475;50.084;8.576;2023-07-28T03:17:13;99828.09;;;17.61;100.00
692;BME280;70475;50.084;8.576;2023-07-28T03:19:40;99814.88;;;17.60;100.00
692;BME280;70475;50.084;8.576;2023-07-28T03:22:08;99818.97;;;17.62;100.00
692;BME280;70475;50.084;8.576;2023-07-28T03:24:35;99822.19;;;17.64;100.00
692;BME280;70475;50.084;8.576;2023-07-28T03:27:03;99818.97;;;17.62;100.00
692;BME280;70475;50.084;8.576;2023-07-28T03:29:32;99828.34;;;17.60;100.00
692;BME280;70475;50.084;8.576;2023-07-28T03:32:00;99832.69;;;17.61;100.00
692;BME280;70475;50.084;8.576;2023-07-28T03:34:28;99830.22;;;17.59;100.00
692;BME280;70475;50.084;8.576;2023-07-28T03:36:55;99833.47;;;17.61;100.00
692;BME280;70475;50.084;8.576;2023-07-28T03:39:23;99831.28;;;17.58;100.00
692;BME280;70475;50.084;8.576;2023-07-28T03:41:50;99834.78;;;17.59;100.00
692;BME280;70475;50.084;8.576;2023-07-28T03:44:18;99834.78;;;17.59;100.00
692;BME280;70475;50.084;8.576;2023-07-28T03:46:47;99828.91;;;17.62;100.00
692;BME280;70475;50.084;8.576;2023-07-28T03:49:14;99818.63;;;17.59;100.00
692;BME280;70475;50.084;8.576;2023-07-28T03:51:42;99825.97;;;17.63;100.00
692;BME280;70475;50.084;8.576;2023-07-28T03:54:10;99826.22;;;17.62;100.00
692;BME280;70475;50.084;8.576;2023-07-28T03:56:38;99821.91;;;17.61;100.00
692;BME280;70475;50.084;8.576;2023-07-28T03:59:05;99828.41;;;17.65;100.00
692;BME280;70475;50.084;8.576;2023-07-28T04:01:35;99830.63;;;17.68;100.00
692;BME280;70475;50.084;8.576;2023-07-28T04:04:04;99836.03;;;17.73;100.00
692;BME280;70475;50.084;8.576;2023-07-28T04:06:42;99830.66;;;17.73;100.00
692;BME280;70475;50.084;8.576;2023-07-28T04:09:11;99836.56;;;17.70;100.00
692;BME280;70475;50.084;8.576;2023-07-28T04:11:39;99834.44;;;17.72;100.00
692;BME280;70475;50.084;8.576;2023-07-28T04:14:06;99832.81;;;17.71;100.00
692;BME280;70475;50.084;8.576;2023-07-28T04:16:34;99832.81;;;17.71;100.00
692;BME280;70475;50.084;8.576;2023-07-28T04:19:02;99845.19;;;17.72;100.00
692;BME280;70475;50.084;8.576;2023-07-28T04:21:31;99850.09;;;17.75;100.00
692;BME280;70475;50.084;8.576;2023-07-28T04:23:59;99848.53;;;17.79;100.00
692;BME280;70475;50.084;8.576;2023-07-28T04:26:26;99852.03;;;17.79;100.00
692;BME280;70475;50.084;8.576;2023-07-28T04:28:54;99847.47;;;17.80;100.00
692;BME280;70475;50.084;8.576;2023-07-28T04:31:21;99860.44;;;17.83;100.00
692;BME280;70475;50.084;8.576;2023-07-28T04:33:49;99861.50;;;17.82;100.00
692;BME280;70475;50.084;8.576;2023-07-28T04:36:16;99865.25;;;17.81;100.00
692;BME280;70475;50.084;8.576;2023-07-28T04:38:45;99856.59;;;17.79;100.00
692;BME280;70475;50.084;8.576;2023-07-28T04:41:13;99862.06;;;17.84;100.00
692;BME280;70475;50.084;8.576;2023-07-28T04:43:41;99865.59;;;17.84;100.00
692;BME280;70475;50.084;8.576;2023-07-28T04:46:08;99863.44;;;17.86;100.00
692;BME280;70475;50.084;8.576;2023-07-28T04:48:36;99862.38;;;17.87;100.00
692;BME280;70475;50.084;8.576;2023-07-28T04:51:03;99873.72;;;17.89;100.00
692;BME280;70475;50.084;8.576;2023-07-28T04:53:31;99878.56;;;17.87;100.00
692;BME280;70475;50.084;8.576;2023-07-28T04:56:00;99882.88;;;17.88;100.00
692;BME280;70475;50.084;8.576;2023-07-28T04:58:29;99881.38;;;17.97;100.00
692;BME280;70475;50.084;8.576;2023-07-28T05:00:57;99884.44;;;18.06;100.00
692;BME280;70475;50.084;8.576;2023-07-28T05:03:25;99892.94;;;17.98;100.00
692;BME280;70475;50.084;8.576;2023-07-28T05:05:52;99884.31;;;17.96;100.00
692;BME280;70475;50.084;8.576;2023-07-28T05:08:20;99889.75;;;18.01;100.00
692;BME280;70475;50.084;8.576;2023-07-28T05:10:47;99894.91;;;18.02;100.00
692;BME280;70475;50.084;8.576;2023-07-28T05:13:16;99896.22;;;18.00;100.00
692;BME280;70475;50.084;8.576;2023-07-28T05:15:43;99900.28;;;18.02;100.00
692;BME280;70475;50.084;8.576;2023-07-28T05:18:11;99901.59;;;18.00;100.00
692;BME280;70475;50.084;8.576;2023-07-28T05:20:39;99904.06;;;18.01;100.00
692;BME280;70475;50.084;8.576;2023-07-28T05:23:07;99902.72;;;18.04;100.00
692;BME280;70475;50.084;8.576;2023-07-28T05:25:35;99901.59;;;18.00;100.00
692;BME280;70475;50.084;8.576;2023-07-28T05:28:02;99904.88;;;18.02;100.00
692;BME280;70475;50.084;8.576;2023-07-28T05:30:31;99909.78;;;18.05;100.00
692;BME280;70475;50.084;8.576;2023-07-28T05:32:59;99907.88;;;18.05;100.00
692;BME280;70475;50.084;8.576;2023-07-28T05:35:26;99905.75;;;18.07;100.00
692;BME280;70475;50.084;8.576;2023-07-28T05:37:54;99904.75;;;18.13;100.00
692;BME280;70475;50.084;8.576;2023-07-28T05:40:22;99908.28;;;18.14;100.00
692;BME280;70475;50.084;8.576;2023-07-28T05:42:49;99904.25;;;18.16;100.00
692;BME280;70475;50.084;8.576;2023-07-28T05:45:17;99911.25;;;18.17;100.00
692;BME280;70475;50.084;8.576;2023-07-28T05:47:45;99909.38;;;18.18;100.00
692;BME280;70475;50.084;8.576;2023-07-28T05:50:13;99912.19;;;18.28;100.00
692;BME280;70475;50.084;8.576;2023-07-28T05:52:40;99908.19;;;18.30;100.00
692;BME280;70475;50.084;8.576;2023-07-28T05:55:08;99917.66;;;18.33;100.00
692;BME280;70475;50.084;8.576;2023-07-28T05:57:37;99911.19;;;18.34;100.00
692;BME280;70475;50.084;8.576;2023-07-28T06:00:06;99909.16;;;18.41;100.00
692;BME280;70475;50.084;8.576;2023-07-28T06:02:36;99907.34;;;18.47;100.00
692;BME280;70475;50.084;8.576;2023-07-28T06:05:06;99911.16;;;18.51;100.00
692;BME280;70475;50.084;8.576;2023-07-28T06:07:33;99912.34;;;18.60;100.00
692;BME280;70475;50.084;8.576;2023-07-28T06:10:01;99910.69;;;18.59;100.00
692;BME280;70475;50.084;8.576;2023-07-28T06:12:28;99910.50;;;18.65;100.00
692;BME280;70475;50.084;8.576;2023-07-28T06:14:56;99917.41;;;18.56;100.00
692;BME280;70475;50.084;8.576;2023-07-28T06:17:23;99912.84;;;18.57;100.00
692;BME280;70475;50.084;8.576;2023-07-28T06:19:54;99911.19;;;18.56;100.00
692;BME280;70475;50.084;8.576;2023-07-28T06:22:22;99912.63;;;18.63;100.00
692;BME280;70475;50.084;8.576;2023-07-28T06:24:50;99913.19;;;18.65;100.00
692;BME280;70475;50.084;8.576;2023-07-28T06:27:18;99919.16;;;18.67;100.00
692;BME280;70475;50.084;8.576;2023-07-28T06:29:45;99927.19;;;18.62;100.00
692;BME280;70475;50.084;8.576;2023-07-28T06:32:13;99923.47;;;18.68;100.00
692;BME280;70475;50.084;8.576;2023-07-28T06:34:40;99929.75;;;18.74;100.00
692;BME280;70475;50.084;8.576;2023-07-28T06:37:08;99921.72;;;18.79;100.00
692;BME280;70475;50.084;8.576;2023-07-28T06:39:37;99926.34;;;18.83;100.00
692;BME280;70475;50.084;8.576;2023-07-28T06:42:06;99936.13;;;18.89;100.00
692;BME280;70475;50.084;8.576;2023-07-28T06:44:33;99927.09;;;19.05;100.00
692;BME280;70475;50.084;8.576;2023-07-28T06:47:01;99934.81;;;19.23;100.00
692;BME280;70475;50.084;8.576;2023-07-28T06:49:29;99939.81;;;19.36;100.00
692;BME280;70475;50.084;8.576;2023-07-28T06:51:56;99941.44;;;19.37;100.00
692;BME280;70475;50.084;8.576;2023-07-28T06:54:24;99936.00;;;19.32;100.00
692;BME280;70475;50.084;8.576;2023-07-28T06:56:53;99951.03;;;19.23;100.00
692;BME280;70475;50.084;8.576;2023-07-28T06:59:21;99949.88;;;19.19;100.00
692;BME280;70475;50.084;8.576;2023-07-28T07:01:49;99950.97;;;19.18;100.00
692;BME280;70475;50.084;8.576;2023-07-28T07:04:16;99952.00;;;19.12;100.00
692;BME280;70475;50.084;8.576;2023-07-28T07:06:44;99948.63;;;19.27;100.00
692;BME280;70475;50.084;8.576;2023-07-28T07:09:12;99953.31;;;19.36;100.00
692;BME280;70475;50.084;8.576;2023-07-28T07:11:41;99955.19;;;19.36;100.00
692;BME280;70475;50.084;8.576;2023-07-28T07:14:10;99957.38;;;19.39;100.00
692;BME280;70475;50.084;8.576;2023-07-28T07:16:37;99959.84;;;19.40;100.00
692;BME280;70475;50.084;8.576;2023-07-28T07:19:05;99961.44;;;19.36;100.00
692;BME280;70475;50.084;8.576;2023-07-28T07:21:32;99959.88;;;19.45;100.00
692;BME280;70475;50.084;8.576;2023-07-28T07:24:02;99963.13;;;19.47;100.00
692;BME280;70475;50.084;8.576;2023-07-28T07:26:30;99959.13;;;19.55;100.00
692;BME280;70475;50.084;8.576;2023-07-28T07:28:58;99962.66;;;19.55;100.00
692;BME280;70475;50.084;8.576;2023-07-28T07:31:27;99960.22;;;19.59;100.00
692;BME280;70475;50.084;8.576;2023-07-28T07:33:55;99966.47;;;19.59;100.00
692;BME280;70475;50.084;8.576;2023-07-28T07:36:22;99974.50;;;19.54;100.00
692;BME280;70475;50.084;8.576;2023-07-28T07:38:50;99975.91;;;19.57;100.00
692;BME280;70475;50.084;8.576;2023-07-28T07:41:17;99976.69;;;19.57;100.00
692;BME280;70475;50.084;8.576;2023-07-28T07:43:47;99981.59;;;19.60;100.00
692;BME280;70475;50.084;8.576;2023-07-28T07:46:15;99977.84;;;19.66;100.00
692;BME280;70475;50.084;8.576;2023-07-28T07:48:47;99986.56;;;19.73;100.00
692;BME280;70475;50.084;8.576;2023-07-28T07:51:14;99986.00;;;19.71;100.00
692;BME280;70475;50.084;8.576;2023-07-28T07:53:42;99990.91;;;19.74;100.00
692;BME280;70475;50.084;8.576;2023-07-28T07:56:09;99982.81;;;19.79;100.00
692;BME280;70475;50.084;8.576;2023-07-28T07:58:37;99987.13;;;19.75;100.00
692;BME280;70475;50.084;8.576;2023-07-28T08:01:05;99992.59;;;19.85;100.00
692;BME280;70475;50.084;8.576;2023-07-28T08:03:33;99989.41;;;19.93;100.00
692;BME280;70475;50.084;8.576;2023-07-28T08:06:03;99991.28;;;19.93;100.00
692;BME280;70475;50.084;8.576;2023-07-28T08:08:31;99989.41;;;19.93;100.00
692;BME280;70475;50.084;8.576;2023-07-28T08:10:58;99987.28;;;20.00;100.00
692;BME280;70475;50.084;8.576;2023-07-28T08:13:26;100004.66;;;20.09;100.00
692;BME280;70475;50.084;8.576;2023-07-28T08:15:54;99991.22;;;20.19;100.00
692;BME280;70475;50.084;8.576;2023-07-28T08:18:22;99994.53;;;20.26;100.00
692;BME280;70475;50.084;8.576;2023-07-28T08:20:50;99997.28;;;20.42;100.00
692;BME280;70475;50.084;8.576;2023-07-28T08:23:19;100003.31;;;20.59;100.00
692;BME280;70475;50.084;8.576;2023-07-28T08:25:46;99993.63;;;20.73;100.00
692;BME280;70475;50.084;8.576;2023-07-28T08:28:14;100002.03;;;20.81;100.00
692;BME280;70475;50.084;8.576;2023-07-28T08:30:42;99997.19;;;20.88;97.98
692;BME280;70475;50.084;8.576;2023-07-28T08:33:09;99999.41;;;20.96;98.94
692;BME280;70475;50.084;8.576;2023-07-28T08:35:37;99996.19;;;21.04;95.63
692;BME280;70475;50.084;8.576;2023-07-28T08:38:04;99990.50;;;21.06;93.58
692;BME280;70475;50.084;8.576;2023-07-28T08:40:36;99995.94;;;21.16;92.32
692;BME280;70475;50.084;8.576;2023-07-28T08:43:04;99998.66;;;21.26;92.44
692;BME280;70475;50.084;8.576;2023-07-28T08:45:32;100000.81;;;21.29;91.54
692;BME280;70475;50.084;8.576;2023-07-28T08:47:59;99996.22;;;21.39;90.83
692;BME280;70475;50.084;8.576;2023-07-28T08:50:27;99998.13;;;21.54;92.13
692;BME280;70475;50.084;8.576;2023-07-28T08:52:56;99997.59;;;21.62;87.97
692;BME280;70475;50.084;8.576;2023-07-28T08:55:23;99998.16;;;21.59;88.90
692;BME280;70475;50.084;8.576;2023-07-28T08:57:52;100003.56;;;21.44;87.68
692;BME280;70475;50.084;8.576;2023-07-28T09:00:20;100005.47;;;21.53;88.30
692;BME280;70475;50.084;8.576;2023-07-28T09:02:49;99998.16;;;21.59;87.10
692;BME280;70475;50.084;8.576;2023-07-28T09:05:18;99996.00;;;21.76;87.00
692;BME280;70475;50.084;8.576;2023-07-28T09:07:46;99995.16;;;22.00;88.29
692;BME280;70475;50.084;8.576;2023-07-28T09:10:14;100000.28;;;22.12;86.99
692;BME280;70475;50.084;8.576;2023-07-28T09:12:45;100005.69;;;22.27;87.50
692;BME280;70475;50.084;8.576;2023-07-28T09:15:14;100005.97;;;22.20;84.03
692;BME280;70475;50.084;8.576;2023-07-28T09:17:43;100007.63;;;22.01;84.35
692;BME280;70475;50.084;8.576;2023-07-28T09:20:15;99997.88;;;22.00;84.31
692;BME280;70475;50.084;8.576;2023-07-28T09:22:43;100016.06;;;21.85;85.28
692;BME280;70475;50.084;8.576;2023-07-28T09:25:12;100016.06;;;21.90;85.37
692;BME280;70475;50.084;8.576;2023-07-28T09:27:40;100011.44;;;21.95;83.50
692;BME280;70475;50.084;8.576;2023-07-28T09:30:08;100014.94;;;22.06;82.51
692;BME280;70475;50.084;8.576;2023-07-28T09:32:37;100009.75;;;22.09;84.74
692;BME280;70475;50.084;8.576;2023-07-28T09:35:09;100019.81;;;22.09;82.54
692;BME280;70475;50.084;8.576;2023-07-28T09:37:38;100019.25;;;22.17;84.87
692;BME280;70475;50.084;8.576;2023-07-28T09:40:08;100018.72;;;22.15;83.03
692;BME280;70475;50.084;8.576;2023-07-28T09:42:38;100014.63;;;22.12;84.84
692;BME280;70475;50.084;8.576;2023-07-28T09:45:06;100018.19;;;22.18;82.70
692;BME280;70475;50.084;8.576;2023-07-28T09:47:55;100016.00;;;22.30;83.92
692;BME280;70475;50.084;8.576;2023-07-28T09:50:27;100016.00;;;22.30;83.47
692;BME280;70475;50.084;8.576;2023-07-28T09:52:59;100008.34;;;22.52;80.91
692;BME280;70475;50.084;8.576;2023-07-28T09:55:30;100003.94;;;22.66;81.61
692;BME280;70475;50.084;8.576;2023-07-28T09:58:01;100008.25;;;22.77;81.01
692;BME280;70475;50.084;8.576;2023-07-28T10:00:32;100008.41;;;22.96;79.41
692;BME280;70475;50.084;8.576;2023-07-28T10:03:02;99999.97;;;22.97;77.00
692;BME280;70475;50.084;8.576;2023-07-28T10:05:31;100001.28;;;23.10;78.24
692;BME280;70475;50.084;8.576;2023-07-28T10:08:01;100010.47;;;23.14;78.23
692;BME280;70475;50.084;8.576;2023-07-28T10:10:31;100008.50;;;23.29;80.47
692;BME280;70475;50.084;8.576;2023-07-28T10:12:59;100012.31;;;23.28;76.12
692;BME280;70475;50.084;8.576;2023-07-28T10:15:28;100016.41;;;23.21;77.55
692;BME280;70475;50.084;8.576;2023-07-28T10:17:57;100014.81;;;23.15;76.22
692;BME280;70475;50.084;8.576;2023-07-28T10:20:35;100015.06;;;23.23;77.30
692;BME280;70475;50.084;8.576;2023-07-28T10:23:06;100013.84;;;23.39;76.69
692;BME280;70475;50.084;8.576;2023-07-28T10:25:36;100015.91;;;23.57;78.33
692;BME280;70475;50.084;8.576;2023-07-28T10:28:05;100008.78;;;23.61;75.21
692;BME280;70475;50.084;8.576;2023-07-28T10:30:36;100010.16;;;23.64;76.06
692;BME280;70475;50.084;8.576;2023-07-28T10:33:04;100015.34;;;23.60;77.61
692;BME280;70475;50.084;8.576;2023-07-28T10:35:33;100013.63;;;23.69;75.79
692;BME280;70475;50.084;8.576;2023-07-28T10:38:29;100016.88;;;23.71;74.81
692;BME280;70475;50.084;8.576;2023-07-28T10:41:12;100013.59;;;23.74;76.18
692;BME280;70475;50.084;8.576;2023-07-28T10:43:41;100018.59;;;23.91;73.83
692;BME280;70475;50.084;8.576;2023-07-28T10:46:11;100017.81;;;24.19;73.52
692;BME280;70475;50.084;8.576;2023-07-28T10:48:41;100014.19;;;24.29;73.32
692;BME280;70475;50.084;8.576;2023-07-28T10:51:12;100018.94;;;24.13;72.76
692;BME280;70475;50.084;8.576;2023-07-28T10:53:39;100020.59;;;24.14;71.89
692;BME280;70475;50.084;8.576;2023-07-28T10:56:08;100018.19;;;24.07;73.74
692;BME280;70475;50.084;8.576;2023-07-28T10:58:37;100020.25;;;24.20;71.72
692;BME280;70475;50.084;8.576;2023-07-28T11:01:05;100025.09;;;24.23;73.31
692;BME280;70475;50.084;8.576;2023-07-28T11:03:33;100022.91;;;24.26;72.12
692;BME280;70475;50.084;8.576;2023-07-28T11:06:03;100022.56;;;24.08;71.62
692;BME280;70475;50.084;8.576;2023-07-28T11:08:32;100021.09;;;23.87;71.99
692;BME280;70475;50.084;8.576;2023-07-28T11:11:03;100018.41;;;23.82;74.88
692;BME280;70475;50.084;8.576;2023-07-28T11:13:31;100020.06;;;23.83;75.46
692;BME280;70475;50.084;8.576;2023-07-28T11:16:07;100016.81;;;23.76;73.81
692;BME280;70475;50.084;8.576;2023-07-28T11:18:37;100030.03;;;23.59;74.23
692;BME280;70475;50.084;8.576;2023-07-28T11:21:04;100022.44;;;23.56;75.41
692;BME280;70475;50.084;8.576;2023-07-28T11:23:33;100022.91;;;23.30;75.27
692;BME280;70475;50.084;8.576;2023-07-28T11:26:01;100019.84;;;23.36;75.20
692;BME280;70475;50.084;8.576;2023-07-28T11:28:28;100029.72;;;23.27;75.54
692;BME280;70475;50.084;8.576;2023-07-28T11:30:56;100028.00;;;23.36;78.20
692;BME280;70475;50.084;8.576;2023-07-28T11:33:24;100023.84;;;23.49;77.38
692;BME280;70475;50.084;8.576;2023-07-28T11:35:52;100019.25;;;23.78;76.92
692;BME280;70475;50.084;8.576;2023-07-28T11:38:23;100019.69;;;23.90;75.21
692;BME280;70475;50.084;8.576;2023-07-28T11:40:54;100014.34;;;23.80;73.52
692;BME280;70475;50.084;8.576;2023-07-28T11:43:22;100024.69;;;23.78;73.43
692;BME280;70475;50.084;8.576;2023-07-28T11:45:51;100018.94;;;23.84;74.74
692;BME280;70475;50.084;8.576;2023-07-28T11:48:18;100025.44;;;23.88;76.11
692;BME280;70475;50.084;8.576;2023-07-28T11:50:47;100022.66;;;23.93;74.59
692;BME280;70475;50.084;8.576;2023-07-28T11:53:14;100028.03;;;24.03;75.26
692;BME280;70475;50.084;8.576;2023-07-28T11:55:42;100030.97;;;24.36;75.20
692;BME280;70475;50.084;8.576;2023-07-28T11:58:11;100026.88;;;24.38;72.07
692;BME280;70475;50.084;8.576;2023-07-28T12:00:40;100017.16;;;24.32;72.97
692;BME280;70475;50.084;8.576;2023-07-28T12:03:11;100020.91;;;24.07;72.95
692;BME280;70475;50.084;8.576;2023-07-28T12:05:41;100021.13;;;23.82;71.78
692;BME280;70475;50.084;8.576;2023-07-28T12:08:12;100033.03;;;23.58;72.96
692;BME280;70475;50.084;8.576;2023-07-28T12:10:53;100029.78;;;23.12;78.39
692;BME280;70475;50.084;8.576;2023-07-28T12:13:26;100044.03;;;22.84;82.70
692;BME280;70475;50.084;8.576;2023-07-28T12:15:56;100021.81;;;22.77;83.96
692;BME280;70475;50.084;8.576;2023-07-28T12:18:29;100034.84;;;22.75;83.47
692;BME280;70475;50.084;8.576;2023-07-28T12:21:00;100031.56;;;22.83;83.01
692;BME280;70475;50.084;8.576;2023-07-28T12:23:28;100034.03;;;22.75;83.51
692;BME280;70475;50.084;8.576;2023-07-28T12:25:59;100034.81;;;22.85;80.98
692;BME280;70475;50.084;8.576;2023-07-28T12:28:28;100034.56;;;22.82;80.83
692;BME280;70475;50.084;8.576;2023-07-28T12:30:56;100035.91;;;22.84;82.82
692;BME280;70475;50.084;8.576;2023-07-28T12:33:25;100047.81;;;22.88;82.10
692;BME280;70475;50.084;8.576;2023-07-28T12:36:04;100046.44;;;22.96;81.25
692;BME280;70475;50.084;8.576;2023-07-28T12:38:35;100048.94;;;22.87;79.62
692;BME280;70475;50.084;8.576;2023-07-28T12:41:06;100042.44;;;22.73;80.17
692;BME280;70475;50.084;8.576;2023-07-28T12:43:37;100044.59;;;22.81;80.70
692;BME280;70475;50.084;8.576;2023-07-28T12:46:07;100035.84;;;22.99;82.58
692;BME280;70475;50.084;8.576;2023-07-28T12:48:37;100046.69;;;22.99;81.56
692;BME280;70475;50.084;8.576;2023-07-28T12:51:07;100048.25;;;23.10;81.37
692;BME280;70475;50.084;8.576;2023-07-28T12:53:35;100041.94;;;23.30;81.47
692;BME280;70475;50.084;8.576;2023-07-28T12:56:03;100044.56;;;23.45;80.33
692;BME280;70475;50.084;8.576;2023-07-28T12:58:30;100040.91;;;23.59;82.36
692;BME280;70475;50.084;8.576;2023-07-28T13:01:04;100042.78;;;23.64;80.28
692;BME280;70475;50.084;8.576;2023-07-28T13:03:31;100047.59;;;23.72;81.67
692;BME280;70475;50.084;8.576;2023-07-28T13:05:59;100037.97;;;23.84;79.60
692;BME280;70475;50.084;8.576;2023-07-28T13:08:27;100042.59;;;23.84;76.14
692;BME280;70475;50.084;8.576;2023-07-28T13:10:58;100039.66;;;23.80;77.95
692;BME280;70475;50.084;8.576;2023-07-28T13:13:28;100039.31;;;23.87;80.65
692;BME280;70475;50.084;8.576;2023-07-28T13:15:56;100048.69;;;24.04;79.26
692;BME280;70475;50.084;8.576;2023-07-28T13:18:26;100048.00;;;24.23;80.27
692;BME280;70475;50.084;8.576;2023-07-28T13:20:55;100053.66;;;24.02;78.24